Time;durP1;ratioP1;P1;durP2;ratioP2;P2;SDS_P1;SDS_P2;PMS_P1;PMS_P2;Temp;Humidity;BMP_temperature;BMP_pressure;BME280_temperature;BME280_humidity;BME280_pressure;Samples;Min_cycle;Max_cycle;Signal;HPM_P1;HPM_P2
2023/05/17 00:02:07;;;;;;;7.75;1.83;;;;;;;;;;5050636;28;20017;-76
2023/05/17 00:04:33;;;;;;;4.90;2.13;;;;;;;;;;5051061;28;20533;-75
2023/05/17 00:06:59;;;;;;;11.63;1.60;;;;;;;;;;5050621;28;20021;-76
2023/05/17 00:09:25;;;;;;;7.30;1.25;;;;;;;;;;5050518;28;20028;-75
2023/05/17 00:11:51;;;;;;;3.53;1.27;;;;;;;;;;5050657;28;20463;-75
2023/05/17 00:14:17;;;;;;;4.25;1.85;;;;;;;;;;5033244;28;20384;-76
2023/05/17 00:16:44;;;;;;;5.70;1.60;;;;;;;;;;5050863;28;20029;-76
2023/05/17 00:19:10;;;;;;;7.57;1.50;;;;;;;;;;5032335;28;20025;-76
2023/05/17 00:21:36;;;;;;;4.65;1.42;;;;;;;;;;5044330;28;20029;-75
2023/05/17 00:24:02;;;;;;;4.80;1.55;;;;;;;;;;5047724;28;20028;-76
2023/05/17 00:26:28;;;;;;;5.63;1.55;;;;;;;;;;5049754;28;20506;-75
2023/05/17 00:28:54;;;;;;;4.85;1.25;;;;;;;;;;5050064;28;20104;-75
2023/05/17 00:31:20;;;;;;;5.32;1.60;;;;;;;;;;5032802;28;20479;-74
2023/05/17 00:33:46;;;;;;;7.25;1.92;;;;;;;;;;5051101;28;20029;-74
2023/05/17 00:36:12;;;;;;;8.40;2.25;;;;;;;;;;5050530;28;20029;-75
2023/05/17 00:38:38;;;;;;;6.13;1.20;;;;;;;;;;5049940;28;20021;-75
2023/05/17 00:41:05;;;;;;;6.13;1.15;;;;;;;;;;5032810;28;20021;-75
2023/05/17 00:43:31;;;;;;;3.97;1.35;;;;;;;;;;5050895;28;20549;-74
2023/05/17 00:45:57;;;;;;;4.13;1.52;;;;;;;;;;5050838;28;20025;-74
2023/05/17 00:48:26;;;;;;;5.25;1.65;;;;;;;;;;5051240;28;20148;-74
2023/05/17 00:50:53;;;;;;;6.35;1.38;;;;;;;;;;5050545;28;20021;-75
2023/05/17 00:53:19;;;;;;;6.70;1.48;;;;;;;;;;5050614;28;20029;-74
2023/05/17 00:55:45;;;;;;;6.45;1.52;;;;;;;;;;5051149;28;20060;-74
2023/05/17 00:58:12;;;;;;;5.32;1.50;;;;;;;;;;5049717;28;20032;-74
2023/05/17 01:00:38;;;;;;;5.57;1.20;;;;;;;;;;5032715;28;20025;-74
2023/05/17 01:03:04;;;;;;;4.30;1.50;;;;;;;;;;5050555;28;20472;-74
2023/05/17 01:05:31;;;;;;;6.43;1.45;;;;;;;;;;5050176;28;20025;-74
2023/05/17 01:07:57;;;;;;;5.43;1.65;;;;;;;;;;5049597;28;20021;-74
2023/05/17 01:10:30;;;;;;;3.78;1.65;;;;;;;;;;5051238;28;20028;-75
2023/05/17 01:13:05;;;;;;;7.53;1.50;;;;;;;;;;5054108;28;20112;-74
2023/05/17 01:15:32;;;;;;;4.45;1.63;;;;;;;;;;5036339;28;20538;-75
2023/05/17 01:17:58;;;;;;;3.08;1.27;;;;;;;;;;5053004;28;20040;-74
2023/05/17 01:20:30;;;;;;;5.30;1.55;;;;;;;;;;5054255;28;20032;-74
2023/05/17 01:23:15;;;;;;;3.80;1.33;;;;;;;;;;5054036;28;20036;-74
2023/05/17 01:25:47;;;;;;;10.48;1.58;;;;;;;;;;5036134;28;20447;-74
2023/05/17 01:28:14;;;;;;;6.05;1.60;;;;;;;;;;5052806;28;20021;-74
2023/05/17 01:30:41;;;;;;;3.85;1.48;;;;;;;;;;5054262;28;20025;-74
2023/05/17 01:33:08;;;;;;;8.25;1.85;;;;;;;;;;5053758;28;20544;-74
2023/05/17 01:35:34;;;;;;;5.78;1.52;;;;;;;;;;5053927;28;20405;-74
2023/05/17 01:38:00;;;;;;;5.68;1.40;;;;;;;;;;5052792;28;20025;-74
2023/05/17 01:40:26;;;;;;;5.43;1.60;;;;;;;;;;5054065;28;20036;-74
2023/05/17 01:43:04;;;;;;;7.80;1.95;;;;;;;;;;5053403;28;20534;-74
2023/05/17 01:45:32;;;;;;;7.30;1.88;;;;;;;;;;5053596;28;20025;-74
2023/05/17 01:48:02;;;;;;;5.57;1.42;;;;;;;;;;5052624;28;20481;-74
2023/05/17 01:50:30;;;;;;;4.50;1.48;;;;;;;;;;5053556;28;20029;-74
2023/05/17 01:53:02;;;;;;;6.28;1.50;;;;;;;;;;5053438;28;20096;-74
2023/05/17 01:55:33;;;;;;;7.70;2.00;;;;;;;;;;5053191;28;20306;-74
2023/05/17 01:57:59;;;;;;;;;;;;;;;;;;5053106;28;20025;-73
2023/05/17 02:00:26;;;;;;;6.82;1.80;;;;;;;;;;5053296;28;19929;-75
2023/05/17 02:02:52;;;;;;;8.15;2.63;;;;;;;;;;5053174;28;20025;-74
2023/05/17 02:05:18;;;;;;;5.88;2.15;;;;;;;;;;5052948;28;20236;-74
2023/05/17 02:07:44;;;;;;;9.98;2.30;;;;;;;;;;5049341;28;20025;-74
2023/05/17 02:10:10;;;;;;;6.68;2.00;;;;;;;;;;5053031;28;20047;-74
2023/05/17 02:12:36;;;;;;;10.95;2.50;;;;;;;;;;5053220;28;20029;-74
2023/05/17 02:15:03;;;;;;;4.50;2.40;;;;;;;;;;5053065;28;20455;-74
2023/05/17 02:17:29;;;;;;;6.32;2.38;;;;;;;;;;5052167;28;20040;-74
2023/05/17 02:19:54;;;;;;;10.30;2.53;;;;;;;;;;5052683;28;20434;-74
2023/05/17 02:22:20;;;;;;;10.50;2.40;;;;;;;;;;5051941;28;20025;-74
2023/05/17 02:24:47;;;;;;;10.98;3.28;;;;;;;;;;5052509;28;20372;-74
2023/05/17 02:27:13;;;;;;;10.70;2.70;;;;;;;;;;5052085;28;20048;-74
2023/05/17 02:29:39;;;;;;;13.40;2.90;;;;;;;;;;5052685;28;20021;-74
2023/05/17 02:32:05;;;;;;;9.15;3.42;;;;;;;;;;5052989;28;20017;-74
2023/05/17 02:34:31;;;;;;;10.52;2.63;;;;;;;;;;5052627;28;20112;-74
2023/05/17 02:36:57;;;;;;;11.23;3.72;;;;;;;;;;5052412;28;20052;-74
2023/05/17 02:39:23;;;;;;;8.93;2.85;;;;;;;;;;5052048;28;20509;-74
2023/05/17 02:41:49;;;;;;;9.95;3.13;;;;;;;;;;5041871;28;20097;-74
2023/05/17 02:44:15;;;;;;;9.32;2.83;;;;;;;;;;5052603;28;20017;-74
2023/05/17 02:46:41;;;;;;;9.10;3.17;;;;;;;;;;5052131;28;20025;-76
2023/05/17 02:49:07;;;;;;;7.57;2.53;;;;;;;;;;5049857;28;20626;-74
2023/05/17 02:51:33;;;;;;;11.85;3.55;;;;;;;;;;5052084;28;20108;-74
2023/05/17 02:53:59;;;;;;;6.10;2.90;;;;;;;;;;5052282;28;20100;-74
2023/05/17 02:56:25;;;;;;;8.20;2.97;;;;;;;;;;5052132;28;20555;-74
2023/05/17 02:58:51;;;;;;;8.02;3.20;;;;;;;;;;5051196;28;20017;-74
2023/05/17 03:01:17;;;;;;;10.60;3.17;;;;;;;;;;5052353;28;20032;-74
2023/05/17 03:03:43;;;;;;;9.73;3.00;;;;;;;;;;5051991;28;20028;-74
2023/05/17 03:06:10;;;;;;;11.13;3.20;;;;;;;;;;5051734;28;20052;-74
2023/05/17 03:08:36;;;;;;;11.65;3.38;;;;;;;;;;5051183;28;20021;-74
2023/05/17 03:11:02;;;;;;;10.65;3.80;;;;;;;;;;5051865;28;20471;-74
2023/05/17 03:13:28;;;;;;;7.72;3.00;;;;;;;;;;5052004;28;20024;-74
2023/05/17 03:15:54;;;;;;;13.38;2.92;;;;;;;;;;5051700;28;20033;-75
2023/05/17 03:18:20;;;;;;;6.47;2.80;;;;;;;;;;5050719;28;20036;-74
2023/05/17 03:20:46;;;;;;;9.70;3.15;;;;;;;;;;5051605;28;20167;-73
2023/05/17 03:23:12;;;;;;;9.57;3.17;;;;;;;;;;5051532;28;20035;-74
2023/05/17 03:25:38;;;;;;;11.52;3.13;;;;;;;;;;5051523;28;20095;-75
2023/05/17 03:28:04;;;;;;;6.32;3.00;;;;;;;;;;5050833;28;20019;-75
2023/05/17 03:30:30;;;;;;;9.77;2.92;;;;;;;;;;5051596;28;20445;-74
2023/05/17 03:32:56;;;;;;;8.07;2.70;;;;;;;;;;5051340;28;20044;-74
2023/05/17 03:35:22;;;;;;;14.23;3.85;;;;;;;;;;5051478;28;20491;-75
2023/05/17 03:37:48;;;;;;;10.25;3.25;;;;;;;;;;5050554;28;20025;-74
2023/05/17 03:40:14;;;;;;;10.57;3.35;;;;;;;;;;5051365;28;20107;-75
2023/05/17 03:42:40;;;;;;;11.07;3.22;;;;;;;;;;5051322;28;20068;-73
2023/05/17 03:45:07;;;;;;;8.52;2.70;;;;;;;;;;5051328;28;20106;-74
2023/05/17 03:47:33;;;;;;;8.50;3.83;;;;;;;;;;5050284;28;20491;-74
2023/05/17 03:49:59;;;;;;;13.40;3.15;;;;;;;;;;5033103;28;20112;-74
2023/05/17 03:52:25;;;;;;;9.55;3.22;;;;;;;;;;5051360;28;20399;-74
2023/05/17 03:54:51;;;;;;;12.27;3.08;;;;;;;;;;5033435;28;20032;-74
2023/05/17 03:57:18;;;;;;;10.75;3.05;;;;;;;;;;5050805;28;20025;-74
2023/05/17 03:59:44;;;;;;;11.80;3.15;;;;;;;;;;5051249;28;20027;-74
2023/05/17 04:02:10;;;;;;;10.68;3.05;;;;;;;;;;5051042;28;20052;-74
2023/05/17 04:04:36;;;;;;;9.85;3.53;;;;;;;;;;5051002;28;20407;-74
2023/05/17 04:07:02;;;;;;;12.10;3.15;;;;;;;;;;5051190;28;20025;-74
2023/05/17 04:09:31;;;;;;;9.43;3.00;;;;;;;;;;5051159;28;20028;-75
2023/05/17 04:11:57;;;;;;;10.43;3.47;;;;;;;;;;5051020;28;20037;-75
2023/05/17 04:14:23;;;;;;;13.73;4.53;;;;;;;;;;5051240;28;20028;-74
2023/05/17 04:16:49;;;;;;;6.93;3.35;;;;;;;;;;5050873;28;20107;-73
2023/05/17 04:19:15;;;;;;;12.40;3.35;;;;;;;;;;5049847;28;20025;-74
2023/05/17 04:21:41;;;;;;;12.05;3.88;;;;;;;;;;5050978;28;20509;-74
2023/05/17 04:24:07;;;;;;;17.08;3.58;;;;;;;;;;5051340;28;20029;-75
2023/05/17 04:26:33;;;;;;;8.30;3.42;;;;;;;;;;5051190;28;20025;-75
2023/05/17 04:29:00;;;;;;;13.85;4.60;;;;;;;;;;5050081;28;20104;-74
2023/05/17 04:31:26;;;;;;;9.55;4.00;;;;;;;;;;5033073;28;20021;-74
2023/05/17 04:33:52;;;;;;;12.15;3.95;;;;;;;;;;5050630;28;20037;-75
2023/05/17 04:36:18;;;;;;;9.02;3.42;;;;;;;;;;5050675;28;20094;-74
2023/05/17 04:38:45;;;;;;;14.98;4.53;;;;;;;;;;5050180;28;20021;-75
2023/05/17 04:41:11;;;;;;;10.07;3.95;;;;;;;;;;5050720;28;20394;-75
2023/05/17 04:43:37;;;;;;;8.80;3.35;;;;;;;;;;5050888;28;20036;-75
2023/05/17 04:46:04;;;;;;;13.40;3.90;;;;;;;;;;5052437;28;20021;-75
2023/05/17 04:48:31;;;;;;;9.02;3.33;;;;;;;;;;5053710;28;20025;-76
2023/05/17 04:51:00;;;;;;;9.02;3.55;;;;;;;;;;5054590;28;20021;-76
2023/05/17 04:53:26;;;;;;;14.30;4.60;;;;;;;;;;5054897;28;20088;-76
2023/05/17 04:55:52;;;;;;;11.20;3.75;;;;;;;;;;5054519;28;20108;-76
2023/05/17 04:58:18;;;;;;;9.70;3.58;;;;;;;;;;5054220;28;20025;-77
2023/05/17 05:00:44;;;;;;;11.13;3.50;;;;;;;;;;5054279;28;20025;-75
2023/05/17 05:03:10;;;;;;;8.45;3.50;;;;;;;;;;5054653;28;20108;-74
2023/05/17 05:05:36;;;;;;;13.15;3.85;;;;;;;;;;5052925;28;20598;-74
2023/05/17 05:08:02;;;;;;;14.45;4.05;;;;;;;;;;5053556;28;20062;-74
2023/05/17 05:10:28;;;;;;;11.60;3.50;;;;;;;;;;5053969;28;20029;-75
2023/05/17 05:12:54;;;;;;;11.65;3.88;;;;;;;;;;5054205;28;20028;-74
2023/05/17 05:15:20;;;;;;;8.07;3.03;;;;;;;;;;5054099;28;20024;-76
2023/05/17 05:17:47;;;;;;;10.63;3.70;;;;;;;;;;5052155;28;20021;-75
2023/05/17 05:20:13;;;;;;;11.88;3.75;;;;;;;;;;5054116;28;20439;-75
2023/05/17 05:22:39;;;;;;;11.27;4.28;;;;;;;;;;5052432;28;20035;-75
2023/05/17 05:25:05;;;;;;;9.23;3.70;;;;;;;;;;5053849;28;20112;-75
2023/05/17 05:27:31;;;;;;;11.57;3.80;;;;;;;;;;5053078;28;20029;-75
2023/05/17 05:29:57;;;;;;;9.75;4.00;;;;;;;;;;5053501;28;20025;-75
2023/05/17 05:32:23;;;;;;;11.55;4.25;;;;;;;;;;5052875;28;20029;-76
2023/05/17 05:34:49;;;;;;;10.88;3.53;;;;;;;;;;5053602;28;20075;-76
2023/05/17 05:37:18;;;;;;;11.57;4.00;;;;;;;;;;5053228;28;20445;-75
2023/05/17 05:39:44;;;;;;;9.60;4.28;;;;;;;;;;5053780;28;20483;-74
2023/05/17 05:42:10;;;;;;;9.50;3.50;;;;;;;;;;5053761;28;20501;-75
2023/05/17 05:44:36;;;;;;;10.00;3.78;;;;;;;;;;5053677;28;20013;-75
2023/05/17 05:47:02;;;;;;;6.43;3.65;;;;;;;;;;5051402;28;20025;-75
2023/05/17 05:49:28;;;;;;;14.43;4.68;;;;;;;;;;5052062;28;20052;-75
2023/05/17 05:51:54;;;;;;;11.95;3.78;;;;;;;;;;5053350;28;20056;-75
2023/05/17 05:54:20;;;;;;;10.52;4.00;;;;;;;;;;5053183;28;20025;-75
2023/05/17 05:56:46;;;;;;;13.07;3.85;;;;;;;;;;5051980;28;20029;-75
2023/05/17 05:59:12;;;;;;;11.43;4.25;;;;;;;;;;5052352;28;20325;-75
2023/05/17 06:01:38;;;;;;;11.73;4.43;;;;;;;;;;5053466;28;20457;-75
2023/05/17 06:04:04;;;;;;;9.80;3.78;;;;;;;;;;5053309;28;20371;-75
2023/05/17 06:06:30;;;;;;;13.10;3.78;;;;;;;;;;5053254;28;20124;-76
2023/05/17 06:08:56;;;;;;;9.75;4.07;;;;;;;;;;5034886;28;20510;-76
2023/05/17 06:11:23;;;;;;;11.93;4.45;;;;;;;;;;5053288;28;20376;-75
2023/05/17 06:13:49;;;;;;;11.82;4.80;;;;;;;;;;5052733;28;20037;-75
2023/05/17 06:16:15;;;;;;;9.52;4.07;;;;;;;;;;5053191;28;20508;-75
2023/05/17 06:18:41;;;;;;;16.42;4.93;;;;;;;;;;5052228;28;20021;-75
2023/05/17 06:21:07;;;;;;;11.48;4.05;;;;;;;;;;5031946;28;20036;-75
2023/05/17 06:23:33;;;;;;;10.73;4.00;;;;;;;;;;5052198;28;20033;-78
2023/05/17 06:25:59;;;;;;;15.10;5.55;;;;;;;;;;5052939;28;20036;-75
2023/05/17 06:28:25;;;;;;;13.90;4.80;;;;;;;;;;5051482;28;20395;-75
2023/05/17 06:30:51;;;;;;;12.90;4.80;;;;;;;;;;5034774;28;20021;-75
2023/05/17 06:33:17;;;;;;;10.70;4.68;;;;;;;;;;5035064;28;20021;-75
2023/05/17 06:35:43;;;;;;;12.77;4.78;;;;;;;;;;5052512;28;20494;-75
2023/05/17 06:38:10;;;;;;;13.30;4.40;;;;;;;;;;5051005;28;20090;-78
2023/05/17 06:40:36;;;;;;;9.77;4.20;;;;;;;;;;5034752;28;20017;-76
2023/05/17 06:43:02;;;;;;;10.00;4.38;;;;;;;;;;5051527;28;20040;-76
2023/05/17 06:45:28;;;;;;;16.55;4.50;;;;;;;;;;5033217;28;20036;-75
2023/05/17 06:50:32;;;;;;;13.18;4.25;;;;;;;;;;5045864;28;20153;-74
2023/05/17 06:52:58;;;;;;;13.45;4.05;;;;;;;;;;5052319;28;20028;-74
2023/05/17 06:55:25;;;;;;;14.65;4.22;;;;;;;;;;5052088;28;20451;-76
2023/05/17 06:57:51;;;;;;;11.00;3.85;;;;;;;;;;5051986;28;20024;-75
2023/05/17 07:00:17;;;;;;;12.57;4.00;;;;;;;;;;5052214;28;20025;-76
2023/05/17 07:02:43;;;;;;;13.30;4.32;;;;;;;;;;5052261;28;20383;-75
2023/05/17 07:05:09;;;;;;;13.57;4.43;;;;;;;;;;5051924;28;20029;-76
2023/05/17 07:07:35;;;;;;;13.10;4.75;;;;;;;;;;5051416;28;20114;-75
2023/05/17 07:10:01;;;;;;;12.82;4.85;;;;;;;;;;5033995;28;20025;-75
2023/05/17 07:12:27;;;;;;;12.23;4.32;;;;;;;;;;5052083;28;20013;-76
2023/05/17 07:14:53;;;;;;;12.07;4.65;;;;;;;;;;5052360;28;20017;-77
2023/05/17 07:17:19;;;;;;;15.52;4.32;;;;;;;;;;5033389;28;20025;-75
2023/05/17 07:19:49;;;;;;;12.68;3.60;;;;;;;;;;5051916;28;20505;-76
2023/05/17 07:22:15;;;;;;;10.77;3.92;;;;;;;;;;5052170;28;20044;-76
2023/05/17 07:24:41;;;;;;;11.50;4.30;;;;;;;;;;5052298;28;20025;-75
2023/05/17 07:27:07;;;;;;;14.90;5.47;;;;;;;;;;5050072;28;20028;-74
2023/05/17 07:29:33;;;;;;;10.15;4.43;;;;;;;;;;5051898;28;20029;-76
2023/05/17 07:31:59;;;;;;;12.88;3.92;;;;;;;;;;5057459;28;20032;-76
2023/05/17 07:34:25;;;;;;;9.32;4.53;;;;;;;;;;5056001;28;20044;-76
2023/05/17 07:36:51;;;;;;;8.93;4.22;;;;;;;;;;5034820;28;20418;-75
2023/05/17 07:39:17;;;;;;;12.05;4.28;;;;;;;;;;5051690;28;20021;-76
2023/05/17 07:41:43;;;;;;;12.77;4.20;;;;;;;;;;5050562;28;20048;-75
2023/05/17 07:44:10;;;;;;;11.93;4.63;;;;;;;;;;5050014;28;20044;-76
2023/05/17 07:46:36;;;;;;;10.73;3.95;;;;;;;;;;5031556;28;20033;-76
2023/05/17 07:49:03;;;;;;;13.95;4.43;;;;;;;;;;5048589;28;20539;-76
2023/05/17 07:51:30;;;;;;;12.80;3.90;;;;;;;;;;5049785;28;20020;-76
2023/05/17 07:53:56;;;;;;;13.48;4.35;;;;;;;;;;5049635;28;20017;-77
2023/05/17 07:56:22;;;;;;;10.98;3.92;;;;;;;;;;5049900;28;20416;-76
2023/05/17 07:58:48;;;;;;;10.45;4.13;;;;;;;;;;5050450;28;20099;-75
2023/05/17 08:01:14;;;;;;;10.75;3.88;;;;;;;;;;5051085;28;20021;-76
2023/05/17 08:03:46;;;;;;;13.68;4.30;;;;;;;;;;5051501;28;20033;-76
2023/05/17 08:06:13;;;;;;;12.20;4.63;;;;;;;;;;5033529;28;20032;-76
2023/05/17 08:08:39;;;;;;;13.75;4.50;;;;;;;;;;5051247;28;20395;-75
2023/05/17 08:11:05;;;;;;;12.25;4.20;;;;;;;;;;5033433;28;20032;-76
2023/05/17 08:13:31;;;;;;;9.70;3.83;;;;;;;;;;5051389;28;20025;-76
2023/05/17 08:16:01;;;;;;;14.35;4.40;;;;;;;;;;5051198;28;20139;-75
2023/05/17 08:18:27;;;;;;;8.43;3.97;;;;;;;;;;5050795;28;20029;-76
2023/05/17 08:20:53;;;;;;;11.13;4.05;;;;;;;;;;5051232;28;20036;-76
2023/05/17 08:23:19;;;;;;;7.82;3.70;;;;;;;;;;5055887;28;20025;-76
2023/05/17 08:25:45;;;;;;;11.60;3.38;;;;;;;;;;5055575;28;20063;-77
2023/05/17 08:28:11;;;;;;;10.07;3.75;;;;;;;;;;5050373;28;20029;-75
2023/05/17 08:30:37;;;;;;;8.95;3.13;;;;;;;;;;5051335;28;20021;-75
2023/05/17 08:33:03;;;;;;;21.52;4.03;;;;;;;;;;5033228;28;20017;-75
2023/05/17 08:35:30;;;;;;;9.70;3.72;;;;;;;;;;5051006;28;20371;-76
2023/05/17 08:37:56;;;;;;;11.93;3.75;;;;;;;;;;5050284;28;20025;-76
2023/05/17 08:40:22;;;;;;;12.68;3.83;;;;;;;;;;5050973;28;20514;-76
2023/05/17 08:42:52;;;;;;;11.45;3.75;;;;;;;;;;5050763;28;20029;-75
2023/05/17 08:45:18;;;;;;;13.63;3.75;;;;;;;;;;5050740;28;20071;-75
2023/05/17 08:47:45;;;;;;;10.13;3.10;;;;;;;;;;5050328;28;20021;-76
2023/05/17 08:50:11;;;;;;;9.02;3.60;;;;;;;;;;5050508;28;20120;-75
2023/05/17 08:52:37;;;;;;;10.68;3.60;;;;;;;;;;5050919;28;20039;-75
2023/05/17 08:55:04;;;;;;;13.13;3.35;;;;;;;;;;5050613;28;20452;-75
2023/05/17 08:57:31;;;;;;;9.30;3.83;;;;;;;;;;5049680;28;20025;-74
2023/05/17 09:00:01;;;;;;;11.73;4.07;;;;;;;;;;5050493;28;20021;-75
2023/05/17 09:02:29;;;;;;;9.13;3.47;;;;;;;;;;5050924;28;20074;-75
2023/05/17 09:04:56;;;;;;;13.27;4.15;;;;;;;;;;5050636;28;20544;-75
2023/05/17 09:07:22;;;;;;;8.57;3.60;;;;;;;;;;5031989;28;20040;-74
2023/05/17 09:09:52;;;;;;;10.77;4.20;;;;;;;;;;5050510;28;20093;-74
2023/05/17 09:12:18;;;;;;;8.80;3.05;;;;;;;;;;5050658;28;20475;-75
2023/05/17 09:14:45;;;;;;;8.95;3.83;;;;;;;;;;5050613;28;20029;-75
2023/05/17 09:17:15;;;;;;;10.02;3.67;;;;;;;;;;5049790;28;20403;-74
2023/05/17 09:19:45;;;;;;;8.75;3.72;;;;;;;;;;5032881;28;20398;-75
2023/05/17 09:22:17;;;;;;;9.25;3.75;;;;;;;;;;5050530;28;20029;-76
2023/05/17 09:24:43;;;;;;;10.63;4.10;;;;;;;;;;5050202;28;20071;-74
2023/05/17 09:27:13;;;;;;;8.52;3.53;;;;;;;;;;5049740;28;20057;-74
2023/05/17 09:29:40;;;;;;;11.00;3.67;;;;;;;;;;5050571;28;20433;-75
2023/05/17 09:32:13;;;;;;;10.43;3.58;;;;;;;;;;5052292;28;20064;-75
2023/05/17 09:34:40;;;;;;;10.23;3.80;;;;;;;;;;5054109;28;20025;-76
2023/05/17 09:37:07;;;;;;;10.95;3.80;;;;;;;;;;5053249;28;20029;-74
2023/05/17 09:39:33;;;;;;;10.88;3.95;;;;;;;;;;5035751;28;20032;-75
2023/05/17 09:41:59;;;;;;;11.32;4.40;;;;;;;;;;5054143;28;20494;-74
2023/05/17 09:44:25;;;;;;;11.77;4.18;;;;;;;;;;5053771;28;20071;-75
2023/05/17 09:46:51;;;;;;;9.57;3.80;;;;;;;;;;5053573;28;20032;-75
2023/05/17 09:49:17;;;;;;;9.55;4.07;;;;;;;;;;5052941;28;20033;-74
2023/05/17 09:51:45;;;;;;;9.93;3.67;;;;;;;;;;5053559;28;20028;-74
2023/05/17 09:54:11;;;;;;;10.00;3.70;;;;;;;;;;5053423;28;20028;-75
2023/05/17 09:56:37;;;;;;;12.13;4.28;;;;;;;;;;5035624;28;20498;-74
2023/05/17 09:59:04;;;;;;;12.95;3.80;;;;;;;;;;5052653;28;20491;-74
2023/05/17 10:01:31;;;;;;;14.73;3.67;;;;;;;;;;5053472;28;20025;-75
2023/05/17 10:04:01;;;;;;;12.43;4.18;;;;;;;;;;5053207;28;20521;-74
2023/05/17 10:06:28;;;;;;;12.77;3.97;;;;;;;;;;5053102;28;20082;-74
2023/05/17 10:08:56;;;;;;;13.05;3.83;;;;;;;;;;5053067;28;20049;-74
2023/05/17 10:11:26;;;;;;;11.00;3.50;;;;;;;;;;5035326;28;20023;-75
2023/05/17 10:13:58;;;;;;;14.30;4.20;;;;;;;;;;5053748;28;20172;-74
2023/05/17 10:16:24;;;;;;;;;;;;;;;;;;5053687;28;20035;-75
2023/05/17 10:18:50;;;;;;;10.15;3.53;;;;;;;;;;5052257;28;19908;-75
2023/05/17 10:21:16;;;;;;;10.25;3.65;;;;;;;;;;5053079;28;20024;-74
2023/05/17 10:23:43;;;;;;;12.55;3.67;;;;;;;;;;5052615;28;20084;-74
2023/05/17 10:26:09;;;;;;;11.98;3.38;;;;;;;;;;5052726;28;20561;-74
2023/05/17 10:28:36;;;;;;;12.90;3.40;;;;;;;;;;5052414;28;20100;-75
2023/05/17 10:31:03;;;;;;;14.73;3.95;;;;;;;;;;5053167;28;20029;-75
2023/05/17 10:33:31;;;;;;;13.02;4.13;;;;;;;;;;5052980;28;20021;-75
2023/05/17 10:35:57;;;;;;;11.68;3.97;;;;;;;;;;5055634;28;20029;-74
2023/05/17 10:38:24;;;;;;;11.82;3.53;;;;;;;;;;5054016;28;20033;-73
2023/05/17 10:40:51;;;;;;;8.23;3.22;;;;;;;;;;5053121;28;20029;-74
2023/05/17 10:43:18;;;;;;;9.73;3.20;;;;;;;;;;5033756;28;20139;-75
2023/05/17 10:45:45;;;;;;;6.97;2.92;;;;;;;;;;5052523;28;20025;-74
2023/05/17 10:48:14;;;;;;;11.07;3.58;;;;;;;;;;5051672;28;20029;-76
2023/05/17 10:50:41;;;;;;;8.25;3.17;;;;;;;;;;5052549;28;20113;-76
2023/05/17 10:53:10;;;;;;;9.43;3.42;;;;;;;;;;5053150;28;20025;-76
2023/05/17 10:55:40;;;;;;;9.20;3.33;;;;;;;;;;5052749;28;20033;-76
2023/05/17 10:58:14;;;;;;;19.15;3.75;;;;;;;;;;5052014;28;20387;-75
2023/05/17 11:00:41;;;;;;;11.43;3.45;;;;;;;;;;5052526;28;20032;-75
2023/05/17 11:03:12;;;;;;;12.02;2.97;;;;;;;;;;5052325;28;20033;-74
2023/05/17 11:05:41;;;;;;;9.27;3.53;;;;;;;;;;5052302;28;20215;-75
2023/05/17 11:08:17;;;;;;;13.60;3.92;;;;;;;;;;5051488;28;20029;-75
2023/05/17 11:11:02;;;;;;;11.65;3.45;;;;;;;;;;5051882;28;20452;-74
2023/05/17 11:13:28;;;;;;;10.80;3.30;;;;;;;;;;5052382;28;20383;-75
2023/05/17 11:16:04;;;;;;;8.77;3.10;;;;;;;;;;5029666;28;20033;-75
2023/05/17 11:18:49;;;;;;;9.32;3.00;;;;;;;;;;5048347;28;20590;-75
2023/05/17 11:21:15;;;;;;;7.78;2.67;;;;;;;;;;5052107;28;20056;-75
2023/05/17 11:23:45;;;;;;;12.05;3.25;;;;;;;;;;5053623;28;20483;-75
2023/05/17 11:26:21;;;;;;;13.43;3.55;;;;;;;;;;5054713;28;20032;-76
2023/05/17 11:28:47;;;;;;;10.13;3.33;;;;;;;;;;5053821;28;20029;-75
2023/05/17 11:31:13;;;;;;;14.18;3.58;;;;;;;;;;5043279;28;20036;-75
2023/05/17 11:33:40;;;;;;;9.32;3.67;;;;;;;;;;5035879;28;20025;-76
2023/05/17 11:36:13;;;;;;;10.52;3.45;;;;;;;;;;5047239;28;20175;-75
2023/05/17 11:38:39;;;;;;;8.95;2.88;;;;;;;;;;5031210;28;20650;-76
2023/05/17 11:41:20;;;;;;;8.75;2.50;;;;;;;;;;5031870;28;20029;-75
2023/05/17 11:43:47;;;;;;;10.35;2.95;;;;;;;;;;5031807;28;20025;-75
2023/05/17 11:46:19;;;;;;;11.98;2.83;;;;;;;;;;5031615;28;20391;-75
2023/05/17 11:48:45;;;;;;;;;;;;;;;;;;5031253;28;20401;-75
2023/05/17 11:51:14;;;;;;;7.20;2.50;;;;;;;;;;5031621;28;19909;-75
2023/05/17 11:53:40;;;;;;;11.82;3.40;;;;;;;;;;5031670;28;20028;-75
2023/05/17 11:56:07;;;;;;;8.40;2.80;;;;;;;;;;5013592;28;20056;-75
2023/05/17 11:58:34;;;;;;;9.45;3.13;;;;;;;;;;5030477;28;20503;-75
2023/05/17 12:01:00;;;;;;;8.98;2.47;;;;;;;;;;5031362;28;20033;-75
2023/05/17 12:03:30;;;;;;;9.70;3.42;;;;;;;;;;5013240;28;20518;-76
2023/05/17 12:06:04;;;;;;;8.02;2.40;;;;;;;;;;5031227;28;20026;-74
2023/05/17 12:08:33;;;;;;;10.57;2.50;;;;;;;;;;5030733;28;20028;-76
2023/05/17 12:10:59;;;;;;;9.07;2.50;;;;;;;;;;5031501;28;20020;-75
2023/05/17 12:13:28;;;;;;;10.20;3.03;;;;;;;;;;5031664;28;20490;-76
2023/05/17 12:15:56;;;;;;;13.15;2.67;;;;;;;;;;5031180;28;20125;-76
2023/05/17 12:18:22;;;;;;;10.43;2.90;;;;;;;;;;5043752;28;20051;-75
2023/05/17 12:20:58;;;;;;;14.35;3.38;;;;;;;;;;5051348;28;20104;-74
2023/05/17 12:23:28;;;;;;;12.25;2.60;;;;;;;;;;5050752;28;20032;-76
2023/05/17 12:26:07;;;;;;;9.07;2.85;;;;;;;;;;5050877;28;20025;-74
2023/05/17 12:28:34;;;;;;;10.68;2.50;;;;;;;;;;5050016;28;20029;-74
2023/05/17 12:31:02;;;;;;;11.32;2.50;;;;;;;;;;5051137;28;20024;-75
2023/05/17 12:33:31;;;;;;;6.55;2.35;;;;;;;;;;5050735;28;20060;-74
2023/05/17 12:35:58;;;;;;;13.20;2.60;;;;;;;;;;5050933;28;20022;-75
2023/05/17 12:38:26;;;;;;;15.57;3.58;;;;;;;;;;5048862;28;20475;-75
2023/05/17 12:40:52;;;;;;;16.10;3.45;;;;;;;;;;5050604;28;20025;-75
2023/05/17 12:43:18;;;;;;;7.68;2.65;;;;;;;;;;5050872;28;20643;-74
2023/05/17 12:45:45;;;;;;;11.82;2.67;;;;;;;;;;5049513;28;20037;-75
2023/05/17 12:48:44;;;;;;;;;;;;;;;;;;;;;
2023/05/17 12:51:21;;;;;;;9.50;2.58;;;;;;;;;;5025655;22;20057;-75
2023/05/17 12:53:50;;;;;;;8.00;2.53;;;;;;;;;;5051487;28;20056;-74
2023/05/17 12:56:18;;;;;;;12.65;2.95;;;;;;;;;;5051047;28;20031;-75
2023/05/17 12:58:44;;;;;;;9.05;2.22;;;;;;;;;;5050889;28;20027;-75
2023/05/17 13:01:13;;;;;;;8.95;2.85;;;;;;;;;;5056418;28;20037;-75
2023/05/17 13:03:40;;;;;;;13.77;3.00;;;;;;;;;;5066799;28;20028;-75
2023/05/17 13:06:09;;;;;;;9.95;3.28;;;;;;;;;;5048086;28;20029;-75
2023/05/17 13:08:35;;;;;;;9.07;2.67;;;;;;;;;;5069185;28;20056;-74
2023/05/17 13:11:07;;;;;;;10.18;2.80;;;;;;;;;;5058782;28;20032;-75
2023/05/17 13:13:33;;;;;;;5.95;2.50;;;;;;;;;;5054857;28;20021;-75
2023/05/17 13:15:59;;;;;;;8.73;2.47;;;;;;;;;;5054946;28;20509;-75
2023/05/17 13:18:25;;;;;;;6.60;2.35;;;;;;;;;;5053961;28;20830;-75
2023/05/17 13:20:51;;;;;;;9.75;2.72;;;;;;;;;;5036575;28;20064;-75
2023/05/17 13:23:17;;;;;;;8.23;2.30;;;;;;;;;;5054274;28;20036;-75
2023/05/17 13:25:43;;;;;;;7.13;2.40;;;;;;;;;;5054228;28;20033;-76
2023/05/17 13:28:09;;;;;;;8.32;2.65;;;;;;;;;;5053769;28;20029;-77
2023/05/17 13:30:35;;;;;;;12.43;2.35;;;;;;;;;;5053933;28;20063;-74
2023/05/17 13:33:01;;;;;;;8.63;2.50;;;;;;;;;;5056412;28;20033;-80
2023/05/17 13:35:27;;;;;;;8.98;2.45;;;;;;;;;;5037129;28;20116;-77
2023/05/17 13:37:54;;;;;;;6.93;2.38;;;;;;;;;;5038266;28;20435;-77
2023/05/17 13:40:20;;;;;;;10.38;2.83;;;;;;;;;;5056640;28;20021;-77
2023/05/17 13:42:46;;;;;;;10.85;2.53;;;;;;;;;;5040016;28;20399;-77
2023/05/17 13:45:12;;;;;;;13.75;3.17;;;;;;;;;;5057798;28;20483;-77
2023/05/17 13:47:38;;;;;;;7.93;2.70;;;;;;;;;;5056418;28;20021;-77
2023/05/17 13:50:05;;;;;;;9.25;2.63;;;;;;;;;;5056144;28;20399;-77
2023/05/17 13:52:31;;;;;;;8.13;2.55;;;;;;;;;;5038208;28;20502;-77
2023/05/17 13:54:57;;;;;;;12.38;3.15;;;;;;;;;;5056127;28;20029;-76
2023/05/17 13:57:23;;;;;;;9.98;2.85;;;;;;;;;;5037355;28;20040;-76
2023/05/17 13:59:49;;;;;;;9.23;2.65;;;;;;;;;;5053997;28;20025;-76
2023/05/17 14:02:15;;;;;;;10.85;2.47;;;;;;;;;;5039176;28;20372;-77
2023/05/17 14:04:41;;;;;;;11.02;3.08;;;;;;;;;;5058598;28;20037;-78
2023/05/17 14:07:07;;;;;;;11.48;2.72;;;;;;;;;;5059057;28;20029;-77
2023/05/17 14:09:34;;;;;;;12.95;2.95;;;;;;;;;;5059708;28;20033;-77
2023/05/17 14:12:00;;;;;;;10.18;3.03;;;;;;;;;;5056733;28;20392;-77
2023/05/17 14:14:27;;;;;;;9.35;2.72;;;;;;;;;;5053942;28;20044;-76
2023/05/17 14:16:54;;;;;;;11.77;2.85;;;;;;;;;;5054227;28;20105;-77
2023/05/17 14:19:20;;;;;;;6.60;2.90;;;;;;;;;;5054916;28;20056;-76
2023/05/17 14:21:46;;;;;;;8.48;2.50;;;;;;;;;;5054180;28;20029;-77
2023/05/17 14:24:12;;;;;;;11.20;2.83;;;;;;;;;;5055157;28;20020;-78
2023/05/17 14:26:38;;;;;;;9.70;2.90;;;;;;;;;;5053876;28;20104;-77
2023/05/17 14:29:05;;;;;;;13.80;2.97;;;;;;;;;;5053476;28;20025;-76
2023/05/17 14:31:31;;;;;;;8.35;2.20;;;;;;;;;;5053340;28;20045;-76
2023/05/17 14:33:58;;;;;;;6.15;2.55;;;;;;;;;;5053459;28;20039;-76
2023/05/17 14:36:24;;;;;;;9.15;2.78;;;;;;;;;;5051961;28;20024;-76
2023/05/17 14:38:50;;;;;;;8.57;2.30;;;;;;;;;;5052726;28;20037;-76
2023/05/17 14:41:17;;;;;;;9.18;2.83;;;;;;;;;;5052376;28;20025;-76